Terminal Aerodrome Forecast
Issued by NWS

Home | Current Version | Previous Version | Text Only | Print | Product List | Glossary On
Versions: 1 2 3 4 5 6 7 8 9 10 11 12 13 14 15 16 17 18
000
FTUS41 KBTV 202038 AAA
TAFSLK
TAF AMD
KSLK 202038Z 2021/2118 VRB04KT 3SM -SN BR OVC020
      TEMPO 2021/2024 1SM -SN BR OVC010
     FM210200 25009KT P6SM VCSH BKN015
     FM210600 22009KT P6SM BKN070
     FM211500 21016G24KT P6SM SCT100=

USA.gov is the U.S. government's official web portal to all federal, state and local government web resources and services.